KFLD/FLD METAR and TAF weather

Enter ICAO airport designator
Station Type Date Time Source
KFLD METAR 2022/01/29 13:53 UTC NOAA

KFLD 291353Z AUTO 19004KT 10SM OVC031 M11/M15 A3015 RMK AO2 SNE14 SLP225 P0000 T11061150


Station Type Date Time Source
KFLD Decoded METAR 2022/01/29 13:53 UTC NOAA

FOND DU LAC COUNTY AIRPORT, WI, United States (KFLD) 43-46N 88-29W 240M
Jan 29, 2022 - 08:53 AM EST / 2022.01.29 1353 UTC
Wind: from the S (190 degrees) at 5 MPH (4 KT):0
Visibility: 10 mile(s):0
Sky conditions: overcast
Precipitation last hour: A trace
Temperature: 12.9 F (-10.6 C)
Windchill: 5 F (-15 C):1
Dew Point: 5.0 F (-15.0 C)
Relative Humidity: 70%
Pressure (altimeter): 30.15 in. Hg (1020 hPa)
ob: KFLD 291353Z AUTO 19004KT 10SM OVC031 M11/M15 A3015 RMK AO2 SNE14 SLP225 P0000 T11061150
cycle: 14

Station Type Date Time Source
KFLD TAF UTC NOAA

Error!

Example: see airport list